createdAt,value
2024-01-11T00:00:37.992Z,-9.12
2024-01-11T00:03:04.884Z,-9.14
2024-01-11T00:05:31.436Z,-9.17
2024-01-11T00:07:59.356Z,-9.11
2024-01-11T00:10:25.863Z,-9.08
2024-01-11T00:12:52.331Z,-9.03
2024-01-11T00:15:18.947Z,-9.07
2024-01-11T00:17:45.639Z,-9.16
2024-01-11T00:20:12.425Z,-9.18
2024-01-11T00:22:38.896Z,-9.18
2024-01-11T00:25:07.707Z,-9.22
2024-01-11T00:27:34.193Z,-9.20
2024-01-11T00:30:00.931Z,-9.16
2024-01-11T00:32:27.493Z,-9.20
2024-01-11T00:34:54.066Z,-9.22
2024-01-11T00:37:20.688Z,-9.16
2024-01-11T00:39:47.150Z,-9.17
2024-01-11T00:42:14.982Z,-9.18
2024-01-11T00:44:43.940Z,-9.31
2024-01-11T00:47:10.490Z,-9.28
2024-01-11T00:49:37.085Z,-9.26
2024-01-11T00:52:04.048Z,-9.29
2024-01-11T00:54:30.600Z,-9.24
2024-01-11T00:56:57.092Z,-9.18
2024-01-11T00:59:24.996Z,-9.19
2024-01-11T01:01:51.945Z,-9.22
2024-01-11T01:04:18.629Z,-9.27
2024-01-11T01:06:45.222Z,-9.25
2024-01-11T01:09:11.726Z,-9.36
2024-01-11T01:11:38.253Z,-9.33
2024-01-11T01:14:05.877Z,-9.29
2024-01-11T01:16:33.752Z,-9.27
2024-01-11T01:19:03.474Z,-9.27
2024-01-11T01:21:31.071Z,-9.21
2024-01-11T01:23:57.634Z,-9.28
2024-01-11T01:26:24.142Z,-9.21
2024-01-11T01:28:50.743Z,-9.15
2024-01-11T01:31:17.194Z,-9.14
2024-01-11T01:33:45.080Z,-9.11
2024-01-11T01:36:12.182Z,-9.04
2024-01-11T01:38:38.824Z,-8.98
2024-01-11T01:41:05.623Z,-8.96
2024-01-11T01:43:32.170Z,-8.95
2024-01-11T01:45:59.451Z,-9.11
2024-01-11T01:48:26.638Z,-9.24
2024-01-11T01:50:55.326Z,-9.26
2024-01-11T01:53:24.006Z,-9.34
2024-01-11T01:56:02.476Z,-9.40
2024-01-11T01:58:29.785Z,-9.42
2024-01-11T02:00:56.538Z,-9.38
2024-01-11T02:03:25.159Z,-9.42
2024-01-11T02:05:51.862Z,-9.43
2024-01-11T02:08:22.641Z,-9.33
2024-01-11T02:10:49.487Z,-9.25
2024-01-11T02:13:16.369Z,-9.27
2024-01-11T02:15:42.849Z,-9.23
2024-01-11T02:18:09.429Z,-9.32
2024-01-11T02:20:36.032Z,-9.34
2024-01-11T02:23:06.734Z,-9.32
2024-01-11T02:25:34.607Z,-9.36
2024-01-11T02:28:01.150Z,-9.36
2024-01-11T02:30:27.721Z,-9.35
2024-01-11T02:32:54.792Z,-9.38
2024-01-11T02:35:22.506Z,-9.46
2024-01-11T02:37:49.501Z,-9.47
2024-01-11T02:40:16.020Z,-9.48
2024-01-11T02:42:43.843Z,-9.42
2024-01-11T02:45:11.570Z,-9.38
2024-01-11T02:47:38.219Z,-9.29
2024-01-11T02:50:05.476Z,-9.28
2024-01-11T02:52:32.017Z,-9.38
2024-01-11T02:54:58.561Z,-9.40
2024-01-11T02:57:25.141Z,-9.40
2024-01-11T02:59:53.148Z,-9.47
2024-01-11T03:02:19.656Z,-9.53
2024-01-11T03:04:46.155Z,-9.54
2024-01-11T03:07:12.751Z,-9.46
2024-01-11T03:09:39.165Z,-9.45
2024-01-11T03:12:05.972Z,-9.50
2024-01-11T03:14:32.538Z,-9.55
2024-01-11T03:17:00.423Z,-9.55
2024-01-11T03:19:26.976Z,-9.52
2024-01-11T03:21:53.481Z,-9.58
2024-01-11T03:24:19.982Z,-9.61
2024-01-11T03:26:46.496Z,-9.59
2024-01-11T03:29:12.976Z,-9.52
2024-01-11T03:31:39.433Z,-9.51
2024-01-11T03:34:07.412Z,-9.59
2024-01-11T03:36:33.947Z,-9.47
2024-01-11T03:39:00.637Z,-9.25
2024-01-11T03:41:27.132Z,-9.26
2024-01-11T03:43:53.623Z,-9.37
2024-01-11T03:46:21.138Z,-9.44
2024-01-11T03:48:47.674Z,-9.49
2024-01-11T03:51:15.500Z,-9.57
2024-01-11T03:53:42.152Z,-9.37
2024-01-11T03:56:08.847Z,-9.22
2024-01-11T03:58:36.849Z,-9.17
2024-01-11T04:01:03.582Z,-9.21
2024-01-11T04:03:30.222Z,-9.26
2024-01-11T04:05:56.957Z,-9.39
2024-01-11T04:08:24.825Z,-9.37
2024-01-11T04:10:51.363Z,-9.40
2024-01-11T04:13:17.777Z,-9.44
2024-01-11T04:15:44.315Z,-9.55
2024-01-11T04:18:10.875Z,-9.55
2024-01-11T04:20:37.560Z,-9.57
2024-01-11T04:23:04.464Z,-9.66
2024-01-11T04:25:32.223Z,-9.71
2024-01-11T04:27:58.729Z,-9.74
2024-01-11T04:30:25.233Z,-9.78
2024-01-11T04:32:51.789Z,-9.79
2024-01-11T04:35:18.445Z,-9.86
2024-01-11T04:37:44.967Z,-9.80
2024-01-11T04:40:11.919Z,-9.81
2024-01-11T04:42:39.685Z,-9.80
2024-01-11T04:45:06.569Z,-9.80
2024-01-11T04:47:33.142Z,-9.79
2024-01-11T04:49:59.752Z,-9.78
2024-01-11T04:52:26.219Z,-9.82
2024-01-11T04:54:55.681Z,-9.74
2024-01-11T04:57:22.120Z,-9.79
2024-01-11T04:59:49.911Z,-9.83
2024-01-11T05:02:16.394Z,-9.77
2024-01-11T05:04:42.883Z,-9.62
2024-01-11T05:07:09.340Z,-9.49
2024-01-11T05:09:35.789Z,-9.39
2024-01-11T05:12:02.245Z,-9.49
2024-01-11T05:14:28.809Z,-9.51
2024-01-11T05:16:56.958Z,-9.56
2024-01-11T05:19:23.596Z,-9.43
2024-01-11T05:21:50.176Z,-9.23
2024-01-11T05:24:16.690Z,-9.22
2024-01-11T05:26:43.518Z,-9.20
2024-01-11T05:29:10.087Z,-9.17
2024-01-11T05:31:36.760Z,-9.21
2024-01-11T05:34:04.906Z,-9.30
2024-01-11T05:36:32.570Z,-9.30
2024-01-11T05:38:59.068Z,-9.35
2024-01-11T05:41:25.572Z,-9.38
2024-01-11T05:43:52.132Z,-9.53
2024-01-11T05:46:18.766Z,-9.52
2024-01-11T05:48:54.533Z,-9.42
2024-01-11T05:51:22.638Z,-9.35
2024-01-11T05:53:49.265Z,-9.23
2024-01-11T05:56:15.860Z,-9.28
2024-01-11T05:58:42.553Z,-9.44
2024-01-11T06:01:09.290Z,-9.49
2024-01-11T06:03:36.366Z,-9.61
2024-01-11T06:06:04.107Z,-9.71
2024-01-11T06:08:32.654Z,-9.62
2024-01-11T06:10:59.738Z,-9.60
2024-01-11T06:13:26.414Z,-9.41
2024-01-11T06:15:52.921Z,-9.29
2024-01-11T06:18:19.712Z,-9.21
2024-01-11T06:20:46.411Z,-9.21
2024-01-11T06:23:13.053Z,-9.29
2024-01-11T06:25:40.897Z,-9.42
2024-01-11T06:28:07.564Z,-9.55
2024-01-11T06:30:34.124Z,-9.58
2024-01-11T06:33:00.819Z,-9.67
2024-01-11T06:35:27.460Z,-9.55
2024-01-11T06:37:54.058Z,-9.41
2024-01-11T06:40:20.560Z,-9.27
2024-01-11T06:42:48.426Z,-9.14
2024-01-11T06:45:15.577Z,-9.05
2024-01-11T06:47:42.373Z,-9.06
2024-01-11T06:50:13.136Z,-8.98
2024-01-11T06:52:39.786Z,-8.98
2024-01-11T06:55:07.419Z,-9.00
2024-01-11T06:57:34.066Z,-8.98
2024-01-11T07:00:02.241Z,-8.95
2024-01-11T07:02:32.255Z,-8.92
2024-01-11T07:04:58.857Z,-9.07
2024-01-11T07:07:39.924Z,-9.01
2024-01-11T07:10:09.843Z,-8.95
2024-01-11T07:12:45.191Z,-8.92
2024-01-11T07:15:13.833Z,-8.82
2024-01-11T07:17:40.563Z,-8.79
2024-01-11T07:20:08.787Z,-8.75
2024-01-11T07:22:35.871Z,-8.75
2024-01-11T07:25:04.132Z,-8.71
2024-01-11T07:27:32.789Z,-8.77
2024-01-11T07:29:59.349Z,-8.70
2024-01-11T07:32:33.770Z,-8.73
2024-01-11T07:35:12.208Z,-8.74
2024-01-11T07:37:50.390Z,-8.62
2024-01-11T07:40:19.977Z,-8.81
2024-01-11T07:42:47.995Z,-8.68
2024-01-11T07:45:14.795Z,-8.60
2024-01-11T07:47:43.499Z,-8.63
2024-01-11T07:50:29.330Z,-8.72
2024-01-11T07:52:59.102Z,-8.68
2024-01-11T07:55:26.109Z,-8.65
2024-01-11T07:58:21.044Z,-8.66
2024-01-11T08:00:53.962Z,-8.52
2024-01-11T08:03:22.193Z,-8.53
2024-01-11T08:05:48.999Z,-8.46
2024-01-11T08:08:16.018Z,-8.42
2024-01-11T08:10:42.727Z,-8.47
2024-01-11T08:13:09.535Z,-8.28
2024-01-11T08:15:36.082Z,-8.17
2024-01-11T08:18:02.798Z,-8.12
2024-01-11T08:20:30.884Z,-7.99
2024-01-11T08:22:57.774Z,-7.86
2024-01-11T08:25:24.381Z,-7.75
2024-01-11T08:27:50.950Z,-7.71
2024-01-11T08:30:17.846Z,-7.71
2024-01-11T08:32:44.466Z,-7.66
2024-01-11T08:35:12.373Z,-7.55
2024-01-11T08:37:40.644Z,-7.41
2024-01-11T08:40:08.229Z,-7.27
2024-01-11T08:42:34.794Z,-7.24
2024-01-11T08:45:01.949Z,-7.16
2024-01-11T08:47:28.693Z,-7.08
2024-01-11T08:49:55.429Z,-7.08
2024-01-11T08:52:24.204Z,-6.96
2024-01-11T08:54:54.575Z,-6.84
2024-01-11T08:57:21.629Z,-6.76
2024-01-11T08:59:48.474Z,-6.82
2024-01-11T09:02:19.041Z,-6.80
2024-01-11T09:04:47.564Z,-6.74
2024-01-11T09:07:14.404Z,-6.80
2024-01-11T09:09:44.488Z,-6.70
2024-01-11T09:12:19.234Z,-6.56
2024-01-11T09:14:45.900Z,-6.44
2024-01-11T09:17:12.589Z,-6.35
2024-01-11T09:19:39.560Z,-6.28
2024-01-11T09:22:09.141Z,-6.10
2024-01-11T09:24:39.532Z,-6.06
2024-01-11T09:27:07.437Z,-6.11
2024-01-11T09:29:35.410Z,-5.92
2024-01-11T09:32:02.089Z,-5.77
2024-01-11T09:34:28.887Z,-5.64
2024-01-11T09:36:55.474Z,-5.60
2024-01-11T09:39:21.955Z,-5.54
2024-01-11T09:41:58.769Z,-5.45
2024-01-11T09:44:25.662Z,-5.36
2024-01-11T09:46:54.266Z,-5.33
2024-01-11T09:49:23.591Z,-5.35
2024-01-11T09:51:51.723Z,-5.40
2024-01-11T09:54:20.393Z,-5.27
2024-01-11T09:56:47.660Z,-5.31
2024-01-11T09:59:15.484Z,-5.22
2024-01-11T10:01:42.117Z,-5.15
2024-01-11T10:04:10.267Z,-5.07
2024-01-11T10:06:39.497Z,-5.01
2024-01-11T10:09:06.085Z,-4.88
2024-01-11T10:11:33.202Z,-4.76
2024-01-11T10:13:59.893Z,-4.62
2024-01-11T10:16:26.515Z,-4.56
2024-01-11T10:18:55.558Z,-4.51
2024-01-11T10:21:24.845Z,-4.35
2024-01-11T10:23:51.941Z,-4.36
2024-01-11T10:26:20.417Z,-4.23
2024-01-11T10:28:47.561Z,-4.19
2024-01-11T10:31:14.142Z,-3.98
2024-01-11T10:33:41.213Z,-3.91
2024-01-11T10:36:08.586Z,-3.97
2024-01-11T10:38:37.697Z,-4.01
2024-01-11T10:41:07.089Z,-3.91
2024-01-11T10:43:37.585Z,-3.65
2024-01-11T10:46:06.033Z,-3.50
2024-01-11T10:48:32.673Z,-3.29
2024-01-11T10:51:01.825Z,-3.25
2024-01-11T10:53:37.385Z,-3.12
2024-01-11T10:56:06.830Z,-2.93
2024-01-11T10:58:35.837Z,-3.14
2024-01-11T11:01:03.405Z,-2.92
2024-01-11T11:03:31.474Z,-2.87
2024-01-11T11:05:59.748Z,-2.78
2024-01-11T11:08:26.351Z,-2.66
2024-01-11T11:10:56.759Z,-2.61
2024-01-11T11:13:25.547Z,-2.23
2024-01-11T11:15:52.831Z,-2.28
2024-01-11T11:18:20.468Z,-1.88
2024-01-11T11:20:48.159Z,-1.63
2024-01-11T11:23:16.907Z,-1.42
2024-01-11T11:25:46.119Z,-1.53
2024-01-11T11:28:13.617Z,-1.42
2024-01-11T11:30:44.640Z,-1.31
2024-01-11T11:33:12.918Z,-1.51
2024-01-11T11:35:39.908Z,-1.76
2024-01-11T11:38:06.885Z,-1.98
2024-01-11T11:40:34.384Z,-2.18
2024-01-11T11:43:02.673Z,-2.36
2024-01-11T11:45:29.738Z,-2.50
2024-01-11T11:47:57.665Z,-2.54
2024-01-11T11:50:24.284Z,-2.53
2024-01-11T11:52:55.524Z,-2.29
2024-01-11T11:55:23.553Z,-2.05
2024-01-11T11:57:50.685Z,-1.74
2024-01-11T12:00:17.871Z,-1.45
2024-01-11T12:02:44.524Z,-1.40
2024-01-11T12:05:12.519Z,-1.58
2024-01-11T12:07:39.716Z,-1.72
2024-01-11T12:10:07.387Z,-1.71
2024-01-11T12:12:35.747Z,-1.73
2024-01-11T12:15:03.878Z,-1.74
2024-01-11T12:17:30.739Z,-1.70
2024-01-11T12:19:57.530Z,-1.77
2024-01-11T12:22:26.072Z,-1.78
2024-01-11T12:24:53.204Z,-1.84
2024-01-11T12:27:19.776Z,-1.79
2024-01-11T12:29:53.109Z,-1.96
2024-01-11T12:32:26.426Z,-1.94
2024-01-11T12:34:53.191Z,-1.99
2024-01-11T12:37:20.688Z,-2.06
2024-01-11T12:39:48.710Z,-2.11
2024-01-11T12:42:15.567Z,-2.08
2024-01-11T12:44:42.157Z,-2.09
2024-01-11T12:47:08.884Z,-2.19
2024-01-11T12:49:35.793Z,-2.20
2024-01-11T12:52:02.402Z,-2.23
2024-01-11T12:54:33.060Z,-2.22
2024-01-11T12:57:01.852Z,-2.24
2024-01-11T12:59:29.250Z,-2.17
2024-01-11T13:01:55.969Z,-2.13
2024-01-11T13:04:25.241Z,-2.01
2024-01-11T13:06:54.804Z,-1.93
2024-01-11T13:09:21.721Z,-1.78
2024-01-11T13:11:48.347Z,-1.77
2024-01-11T13:14:17.194Z,-1.87
2024-01-11T13:16:43.799Z,-2.01
2024-01-11T13:19:19.757Z,-1.83
2024-01-11T13:21:53.266Z,-1.79
2024-01-11T13:24:23.285Z,-1.78
2024-01-11T13:26:49.902Z,-1.86
2024-01-11T13:29:17.826Z,-2.03
2024-01-11T13:31:44.365Z,-2.04
2024-01-11T13:34:10.993Z,-1.98
2024-01-11T13:36:37.639Z,-1.92
2024-01-11T13:39:04.336Z,-1.93
2024-01-11T13:41:31.020Z,-1.83
2024-01-11T13:43:57.585Z,-1.77
2024-01-11T13:46:25.812Z,-1.85
2024-01-11T13:48:52.428Z,-1.79
2024-01-11T13:51:19.143Z,-1.69
2024-01-11T13:53:48.985Z,-1.74
2024-01-11T13:56:15.817Z,-1.69
2024-01-11T13:58:42.496Z,-1.70
2024-01-11T14:01:09.271Z,-1.71
2024-01-11T14:03:37.185Z,-1.76
2024-01-11T14:06:04.488Z,-1.78
2024-01-11T14:08:31.497Z,-1.79
2024-01-11T14:10:58.088Z,-1.82
2024-01-11T14:13:24.724Z,-1.84
2024-01-11T14:15:51.265Z,-1.85
2024-01-11T14:18:18.695Z,-1.87
2024-01-11T14:20:46.773Z,-1.89
2024-01-11T14:23:13.336Z,-1.90
2024-01-11T14:25:39.856Z,-1.96
2024-01-11T14:28:06.780Z,-2.00
2024-01-11T14:30:33.296Z,-2.06
2024-01-11T14:33:00.083Z,-2.11
2024-01-11T14:35:28.261Z,-2.09
2024-01-11T14:37:56.416Z,-2.12
2024-01-11T14:40:24.903Z,-2.19
2024-01-11T14:42:51.831Z,-2.21
2024-01-11T14:45:18.494Z,-2.26
2024-01-11T14:47:45.685Z,-2.31
2024-01-11T14:50:14.694Z,-2.40
2024-01-11T14:52:41.246Z,-2.49
2024-01-11T14:55:11.105Z,-2.51
2024-01-11T14:57:38.092Z,-2.55
2024-01-11T15:00:05.413Z,-2.61
2024-01-11T15:02:35.363Z,-2.68
2024-01-11T15:05:02.560Z,-2.75
2024-01-11T15:07:29.026Z,-2.80
2024-01-11T15:09:55.481Z,-2.88
2024-01-11T15:12:23.707Z,-2.97
2024-01-11T15:14:53.019Z,-3.00
2024-01-11T15:17:19.973Z,-2.95
2024-01-11T15:19:46.629Z,-3.07
2024-01-11T15:22:13.156Z,-3.14
2024-01-11T15:24:41.715Z,-3.13
2024-01-11T15:27:08.388Z,-3.11
2024-01-11T15:29:38.585Z,-3.18
2024-01-11T15:32:06.581Z,-3.13
2024-01-11T15:34:34.965Z,-3.09
2024-01-11T15:37:01.662Z,-3.08
2024-01-11T15:39:29.583Z,-3.09
2024-01-11T15:41:58.953Z,-3.10
2024-01-11T15:44:26.268Z,-3.12
2024-01-11T15:46:56.736Z,-3.12
2024-01-11T15:49:23.869Z,-3.14
2024-01-11T15:51:50.552Z,-3.11
2024-01-11T15:54:17.312Z,-3.11
2024-01-11T15:56:43.989Z,-3.08
2024-01-11T15:59:10.682Z,-3.04
2024-01-11T16:01:47.016Z,-3.03
2024-01-11T16:04:24.368Z,-3.09
2024-01-11T16:06:51.193Z,-3.04
2024-01-11T16:09:17.840Z,-3.05
2024-01-11T16:11:47.620Z,-3.06
2024-01-11T16:14:14.420Z,-3.06
2024-01-11T16:16:40.884Z,-3.11
2024-01-11T16:19:11.329Z,-3.07
2024-01-11T16:21:39.359Z,-3.12
2024-01-11T16:24:07.481Z,-3.06
2024-01-11T16:26:34.022Z,-3.10
2024-01-11T16:29:01.033Z,-3.06
2024-01-11T16:31:27.531Z,-3.10
2024-01-11T16:33:54.485Z,-3.08
2024-01-11T16:36:31.935Z,-3.05
2024-01-11T16:39:02.236Z,-3.11
2024-01-11T16:41:29.174Z,-3.11
2024-01-11T16:43:56.027Z,-3.11
2024-01-11T16:46:30.612Z,-3.15
2024-01-11T16:49:03.081Z,-3.05
2024-01-11T16:51:51.099Z,-3.05
2024-01-11T16:54:19.825Z,-3.05
2024-01-11T16:56:49.965Z,-3.07
2024-01-11T16:59:16.982Z,-2.99
2024-01-11T17:01:43.676Z,-2.97
2024-01-11T17:04:11.747Z,-3.01
2024-01-11T17:06:38.913Z,-3.08
2024-01-11T17:09:16.325Z,-3.05
2024-01-11T17:12:01.591Z,-3.04
2024-01-11T17:14:37.073Z,-3.14
2024-01-11T17:17:05.742Z,-3.04
2024-01-11T17:19:33.192Z,-3.14
2024-01-11T17:22:00.220Z,-3.11
2024-01-11T17:24:26.721Z,-3.12
2024-01-11T17:26:54.793Z,-3.08
2024-01-11T17:29:21.540Z,-3.11
2024-01-11T17:31:48.117Z,-3.02
2024-01-11T17:34:14.891Z,-3.06
2024-01-11T17:36:41.594Z,-3.05
2024-01-11T17:39:11.027Z,-3.01
2024-01-11T17:41:39.234Z,-3.04
2024-01-11T17:44:23.779Z,-3.05
2024-01-11T17:46:50.418Z,-2.97
2024-01-11T17:49:17.123Z,-2.99
2024-01-11T17:51:43.822Z,-3.00
2024-01-11T17:54:10.468Z,-3.00
2024-01-11T17:56:42.864Z,-3.00
2024-01-11T17:59:10.179Z,-2.95
2024-01-11T18:01:38.332Z,-2.98
2024-01-11T18:04:09.411Z,-2.91
2024-01-11T18:06:45.481Z,-2.95
2024-01-11T18:12:06.602Z,-2.94
2024-01-11T18:14:36.968Z,-2.86
2024-01-11T18:20:15.820Z,-2.87
2024-01-11T18:22:42.539Z,-2.90
2024-01-11T18:25:09.955Z,-2.83
2024-01-11T18:27:39.549Z,-2.75
2024-01-11T18:30:09.462Z,-2.86
2024-01-11T18:32:38.835Z,-2.74
2024-01-11T18:35:11.275Z,-2.77
2024-01-11T18:37:45.335Z,-2.82
2024-01-11T18:40:12.394Z,-2.77
2024-01-11T18:42:39.060Z,-2.76
2024-01-11T18:45:06.971Z,-2.67
2024-01-11T18:47:36.987Z,-2.71
2024-01-11T18:50:06.783Z,-2.71
2024-01-11T18:52:33.651Z,-2.67
2024-01-11T18:55:08.325Z,-2.65
2024-01-11T18:57:47.038Z,-2.60
2024-01-11T19:00:14.426Z,-2.64
2024-01-11T19:02:50.681Z,-2.54
2024-01-11T19:05:19.539Z,-2.52
2024-01-11T19:07:46.686Z,-2.48
2024-01-11T19:10:13.683Z,-2.47
2024-01-11T19:12:40.933Z,-2.39
2024-01-11T19:15:08.759Z,-2.41
2024-01-11T19:17:35.781Z,-2.32
2024-01-11T19:20:02.659Z,-2.32
2024-01-11T19:22:30.650Z,-2.36
2024-01-11T19:25:20.351Z,-2.33
2024-01-11T19:27:46.960Z,-2.33
2024-01-11T19:30:14.367Z,-2.36
2024-01-11T19:32:41.150Z,-2.29
2024-01-11T19:35:35.793Z,-2.32
2024-01-11T19:38:04.019Z,-2.36
2024-01-11T19:40:30.823Z,-2.30
2024-01-11T19:42:57.870Z,-2.28
2024-01-11T19:45:24.455Z,-2.32
2024-01-11T19:47:51.319Z,-2.38
2024-01-11T19:50:18.349Z,-2.31
2024-01-11T19:52:45.404Z,-2.32
2024-01-11T19:55:13.423Z,-2.27
2024-01-11T19:57:40.193Z,-2.28
2024-01-11T20:00:09.816Z,-2.27
2024-01-11T20:02:39.318Z,-2.23
2024-01-11T20:05:07.092Z,-2.26
2024-01-11T20:07:40.257Z,-2.15
2024-01-11T20:10:07.579Z,-2.15
2024-01-11T20:12:37.702Z,-2.14
2024-01-11T20:15:05.109Z,-2.15
2024-01-11T20:17:32.673Z,-2.12
2024-01-11T20:19:59.437Z,-2.15
2024-01-11T20:22:28.645Z,-2.14
2024-01-11T20:24:58.483Z,-2.11
2024-01-11T20:27:26.049Z,-2.10
2024-01-11T20:29:54.100Z,-2.07
2024-01-11T20:32:30.158Z,-2.10
2024-01-11T20:34:57.141Z,-2.03
2024-01-11T20:37:23.829Z,-1.95
2024-01-11T20:39:50.544Z,-1.93
2024-01-11T20:42:17.641Z,-1.92
2024-01-11T20:44:44.339Z,-1.90
2024-01-11T20:47:14.836Z,-1.90
2024-01-11T20:49:41.888Z,-1.95
2024-01-11T20:52:17.646Z,-1.89
2024-01-11T20:54:45.590Z,-1.86
2024-01-11T20:57:12.295Z,-1.87
2024-01-11T20:59:38.978Z,-1.80
2024-01-11T21:02:06.117Z,-1.83
2024-01-11T21:04:34.695Z,-1.85
2024-01-11T21:07:04.761Z,-1.76
2024-01-11T21:09:37.974Z,-1.77
2024-01-11T21:12:05.370Z,-1.76
2024-01-11T21:14:31.950Z,-1.71
2024-01-11T21:16:58.630Z,-1.73
2024-01-11T21:19:25.534Z,-1.69
2024-01-11T21:21:56.479Z,-1.68
2024-01-11T21:24:23.298Z,-1.62
2024-01-11T21:26:50.082Z,-1.58
2024-01-11T21:29:17.104Z,-1.55
2024-01-11T21:35:26.867Z,-1.57
2024-01-11T21:37:54.955Z,-1.50
2024-01-11T21:44:33.734Z,-1.45
2024-01-11T21:47:00.413Z,-1.53
2024-01-11T21:53:24.898Z,-1.43
2024-01-11T21:57:00.917Z,-1.41
2024-01-11T22:00:20.406Z,-1.32
2024-01-11T22:12:18.870Z,-1.32
2024-01-11T22:21:07.993Z,-1.23
2024-01-11T22:23:38.712Z,-1.22
2024-01-11T22:26:29.325Z,-1.19
2024-01-11T22:29:09.462Z,-1.22
2024-01-11T22:32:12.027Z,-1.15
2024-01-11T22:35:04.450Z,-1.17
2024-01-11T22:39:53.616Z,-1.17
2024-01-11T22:41:57.365Z,-1.15
2024-01-11T22:44:43.657Z,-1.15
2024-01-11T22:47:58.886Z,-1.17
2024-01-11T22:51:12.677Z,-1.17
2024-01-11T23:00:55.722Z,-1.11
2024-01-11T23:03:27.593Z,-1.14
2024-01-11T23:09:43.301Z,-1.13
2024-01-11T23:12:23.286Z,-1.13
2024-01-11T23:15:04.225Z,-1.09
2024-01-11T23:17:49.881Z,-1.07
2024-01-11T23:20:21.286Z,-1.06
2024-01-11T23:22:50.198Z,-1.08
2024-01-11T23:25:26.753Z,-1.15
2024-01-11T23:28:01.999Z,-1.18
2024-01-11T23:30:32.374Z,-1.12
2024-01-11T23:33:03.511Z,-1.06
2024-01-11T23:35:30.906Z,-1.13
2024-01-11T23:38:06.386Z,-1.15
2024-01-11T23:40:40.991Z,-1.14
2024-01-11T23:43:07.765Z,-1.09
2024-01-11T23:48:17.025Z,-1.12
2024-01-11T23:50:43.939Z,-1.08
2024-01-11T23:53:10.730Z,-1.08
2024-01-11T23:55:37.354Z,-1.10
2024-01-11T23:58:04.361Z,-1.09
